Time;durP1;ratioP1;P1;durP2;ratioP2;P2;SDS_P1;SDS_P2;PMS_P1;PMS_P2;Temp;Humidity;BMP_temperature;BMP_pressure;BME280_temperature;BME280_humidity;BME280_pressure;Samples;Min_cycle;Max_cycle;Signal;HPM_P1;HPM_P2
2023/07/18 00:02:19;;;;;;;0.35;0.25;;;18.40;99.90;;;;;;4384163;32;20118;-76
2023/07/18 00:04:45;;;;;;;0.20;0.20;;;18.30;99.90;;;;;;4386642;32;20557;-76
2023/07/18 00:07:10;;;;;;;0.80;0.80;;;18.40;99.90;;;;;;4392515;32;20098;-77
2023/07/18 00:09:37;;;;;;;0.30;0.30;;;18.40;99.90;;;;;;4398092;32;20521;-77
2023/07/18 00:12:03;;;;;;;0.20;0.20;;;18.20;99.90;;;;;;4398546;32;20074;-77
2023/07/18 00:14:29;;;;;;;0.30;0.25;;;18.10;99.90;;;;;;4397164;32;20144;-77
2023/07/18 00:16:55;;;;;;;0.28;0.28;;;18.10;99.90;;;;;;4397376;32;20087;-77
2023/07/18 00:19:24;;;;;;;0.28;0.28;;;18.10;99.90;;;;;;4403752;32;20062;-76
2023/07/18 00:21:50;;;;;;;0.20;0.20;;;18.10;99.90;;;;;;4398048;32;20079;-77
2023/07/18 00:24:15;;;;;;;0.35;0.35;;;18.10;99.90;;;;;;4399741;32;20062;-77
2023/07/18 00:26:40;;;;;;;0.50;0.50;;;18.20;99.90;;;;;;4398032;32;20061;-77
2023/07/18 00:29:06;;;;;;;0.70;0.70;;;18.10;99.90;;;;;;4396543;32;20097;-77
2023/07/18 00:31:31;;;;;;;0.50;0.50;;;18.00;99.90;;;;;;4397618;32;20070;-77
2023/07/18 00:33:57;;;;;;;0.85;0.40;;;17.90;99.90;;;;;;4402492;32;20081;-78
2023/07/18 00:36:23;;;;;;;0.30;0.30;;;17.90;99.90;;;;;;4397734;32;20104;-77
2023/07/18 00:38:49;;;;;;;0.20;0.20;;;17.90;99.90;;;;;;4398618;32;20066;-77
2023/07/18 00:41:14;;;;;;;1.08;0.55;;;17.90;99.90;;;;;;4398184;32;20078;-78
2023/07/18 00:43:40;;;;;;;0.20;0.20;;;17.90;99.90;;;;;;4397347;32;20117;-77
2023/07/18 00:46:08;;;;;;;0.20;0.20;;;17.70;99.90;;;;;;4399743;32;20086;-77
2023/07/18 00:48:34;;;;;;;0.20;0.20;;;17.70;99.90;;;;;;4398106;32;20185;-77
2023/07/18 00:51:00;;;;;;;4.57;0.60;;;17.70;99.90;;;;;;4398191;32;20090;-77
2023/07/18 00:53:27;;;;;;;0.20;0.20;;;17.70;99.90;;;;;;4398196;32;20117;-77
2023/07/18 00:55:54;;;;;;;4.03;0.93;;;17.70;99.90;;;;;;4394583;32;20133;-76
2023/07/18 00:58:20;;;;;;;2.90;0.75;;;17.50;99.90;;;;;;4397962;32;20153;-77
2023/07/18 01:00:46;;;;;;;0.35;0.32;;;17.50;99.90;;;;;;4397670;32;20066;-77
2023/07/18 01:03:12;;;;;;;0.30;0.30;;;17.40;99.90;;;;;;4397884;32;20061;-77
2023/07/18 01:05:39;;;;;;;0.40;0.40;;;17.40;99.90;;;;;;4397235;32;20066;-77
2023/07/18 01:08:04;;;;;;;0.47;0.25;;;17.40;99.90;;;;;;4398106;32;20125;-76
2023/07/18 01:10:30;;;;;;;0.20;0.20;;;17.40;99.90;;;;;;4397968;32;20193;-77
2023/07/18 01:12:58;;;;;;;0.32;0.32;;;17.40;99.90;;;;;;4398109;32;20066;-77
2023/07/18 01:15:26;;;;;;;1.17;0.40;;;17.30;99.90;;;;;;4398491;32;20498;-77
2023/07/18 01:17:52;;;;;;;0.32;0.32;;;17.20;99.90;;;;;;4397068;32;20065;-77
2023/07/18 01:20:19;;;;;;;0.20;0.20;;;17.20;99.90;;;;;;4397674;32;20454;-77
2023/07/18 01:22:48;;;;;;;0.40;0.40;;;17.20;99.90;;;;;;4397509;32;20406;-77
2023/07/18 01:25:16;;;;;;;0.62;0.62;;;17.20;99.90;;;;;;4399169;32;20066;-77
2023/07/18 01:27:42;;;;;;;0.30;0.30;;;17.10;99.90;;;;;;4398974;32;20114;-77
2023/07/18 01:30:09;;;;;;;0.60;0.28;;;17.10;99.90;;;;;;4396895;32;20083;-77
2023/07/18 01:32:35;;;;;;;1.35;1.10;;;17.00;99.90;;;;;;4396700;32;20537;-75
2023/07/18 01:35:05;;;;;;;0.40;0.40;;;17.10;99.90;;;;;;4397341;32;20117;-76
2023/07/18 01:37:31;;;;;;;0.30;0.30;;;17.10;99.90;;;;;;4393333;32;20121;-76
2023/07/18 01:39:57;;;;;;;0.30;0.30;;;17.10;99.90;;;;;;4392733;32;20065;-77
2023/07/18 01:42:23;;;;;;;0.52;0.40;;;16.90;99.90;;;;;;4397777;32;20070;-76
2023/07/18 01:44:48;;;;;;;0.20;0.20;;;16.70;99.90;;;;;;4393441;32;20059;-76
2023/07/18 01:47:13;;;;;;;0.25;0.25;;;16.70;99.90;;;;;;4396330;32;20077;-75
2023/07/18 01:49:39;;;;;;;0.30;0.30;;;16.70;99.90;;;;;;4396920;32;20139;-76
2023/07/18 01:52:05;;;;;;;0.20;0.20;;;16.80;99.90;;;;;;4397296;32;20066;-75
2023/07/18 01:54:30;;;;;;;0.43;0.40;;;16.80;99.90;;;;;;4396539;32;20514;-75
2023/07/18 01:56:56;;;;;;;0.20;0.20;;;16.80;99.90;;;;;;4396942;32;20089;-76
2023/07/18 01:59:22;;;;;;;0.30;0.30;;;16.90;99.90;;;;;;4396207;32;20069;-75
2023/07/18 02:01:47;;;;;;;0.22;0.22;;;16.90;99.90;;;;;;4396394;32;20078;-76
2023/07/18 02:04:13;;;;;;;0.28;0.28;;;16.90;99.90;;;;;;4396009;32;20137;-76
2023/07/18 02:06:39;;;;;;;0.20;0.20;;;16.90;99.90;;;;;;4385020;32;20128;-77
2023/07/18 02:09:05;;;;;;;0.45;0.40;;;16.90;99.90;;;;;;4397533;32;20497;-77
2023/07/18 02:11:30;;;;;;;0.30;0.30;;;16.80;99.90;;;;;;4397476;32;20062;-76
2023/07/18 02:13:56;;;;;;;0.30;0.30;;;16.70;99.90;;;;;;4396075;32;20546;-76
2023/07/18 02:16:21;;;;;;;0.30;0.30;;;16.50;99.90;;;;;;4397005;32;20082;-75
2023/07/18 02:18:47;;;;;;;0.20;0.20;;;16.40;99.90;;;;;;4394629;32;20129;-76
2023/07/18 02:21:13;;;;;;;0.40;0.40;;;16.40;99.90;;;;;;4396356;32;20549;-76
2023/07/18 02:23:39;;;;;;;3.37;0.45;;;16.50;99.90;;;;;;4395634;32;20069;-76
2023/07/18 02:26:04;;;;;;;0.35;0.35;;;16.50;99.90;;;;;;4392794;32;20075;-75
2023/07/18 02:28:30;;;;;;;0.30;0.30;;;16.50;99.90;;;;;;4394427;32;20687;-76
2023/07/18 02:30:55;;;;;;;0.20;0.20;;;16.40;99.90;;;;;;4397965;32;20066;-76
2023/07/18 02:33:21;;;;;;;0.25;0.25;;;16.40;99.90;;;;;;4396732;32;20612;-76
2023/07/18 02:35:49;;;;;;;0.20;0.20;;;16.30;99.90;;;;;;4396817;32;20137;-76
2023/07/18 02:38:14;;;;;;;0.30;0.30;;;16.20;99.90;;;;;;4396545;32;20136;-76
2023/07/18 02:40:42;;;;;;;0.20;0.20;;;16.20;99.90;;;;;;4396139;32;20074;-76
2023/07/18 02:43:07;;;;;;;0.40;0.40;;;16.10;99.90;;;;;;4398761;32;20398;-76
2023/07/18 02:45:33;;;;;;;0.20;0.20;;;16.20;99.90;;;;;;4395224;32;20077;-75
2023/07/18 02:47:58;;;;;;;0.25;0.25;;;16.20;99.90;;;;;;4395708;32;20127;-77
2023/07/18 02:50:24;;;;;;;0.20;0.20;;;16.20;99.90;;;;;;4397233;32;20062;-76
2023/07/18 02:52:49;;;;;;;0.30;0.30;;;16.10;99.90;;;;;;4396147;32;20066;-76
2023/07/18 02:55:15;;;;;;;0.22;0.22;;;16.00;99.90;;;;;;4395706;32;20089;-75
2023/07/18 02:57:40;;;;;;;0.50;0.50;;;16.10;99.90;;;;;;4393807;32;20534;-76
2023/07/18 03:00:17;;;;;;;0.20;0.20;;;16.10;99.90;;;;;;4396010;32;20079;-75
2023/07/18 03:02:45;;;;;;;0.20;0.20;;;16.00;99.90;;;;;;4393369;32;20090;-76
2023/07/18 03:05:11;;;;;;;0.52;0.30;;;16.00;99.90;;;;;;4396828;32;20478;-75
2023/07/18 03:07:37;;;;;;;1.75;0.45;;;16.00;99.90;;;;;;4395054;32;20152;-76
2023/07/18 03:10:05;;;;;;;0.90;0.57;;;16.00;99.90;;;;;;4395808;32;20062;-75
2023/07/18 03:12:30;;;;;;;0.20;0.20;;;16.00;99.90;;;;;;4395262;32;20082;-76
2023/07/18 03:14:56;;;;;;;0.30;0.30;;;16.00;99.90;;;;;;4400132;32;20081;-76
2023/07/18 03:17:23;;;;;;;0.30;0.30;;;16.00;99.90;;;;;;4396336;32;20078;-76
2023/07/18 03:19:48;;;;;;;0.20;0.20;;;16.00;99.90;;;;;;4398981;32;20074;-75
2023/07/18 03:22:14;;;;;;;0.20;0.20;;;16.00;99.90;;;;;;4398543;32;20070;-76
2023/07/18 03:24:40;;;;;;;0.30;0.30;;;16.00;99.90;;;;;;4398610;32;20085;-76
2023/07/18 03:27:06;;;;;;;0.20;0.20;;;16.00;99.90;;;;;;4399511;32;20069;-76
2023/07/18 03:29:31;;;;;;;0.28;0.28;;;16.00;99.90;;;;;;4398246;32;20069;-75
2023/07/18 03:31:59;;;;;;;0.45;0.45;;;15.90;99.90;;;;;;4400933;32;20490;-76
2023/07/18 03:34:24;;;;;;;0.50;0.50;;;15.80;99.90;;;;;;4397335;32;20066;-77
2023/07/18 03:36:50;;;;;;;0.37;0.37;;;15.80;99.90;;;;;;4398686;32;20074;-76
2023/07/18 03:39:16;;;;;;;0.20;0.20;;;15.90;99.90;;;;;;4398531;32;20074;-73
2023/07/18 03:41:42;;;;;;;0.30;0.30;;;15.80;99.90;;;;;;4398600;32;20069;-73
2023/07/18 03:44:08;;;;;;;0.40;0.40;;;15.80;99.90;;;;;;4399788;32;20656;-74
2023/07/18 03:46:34;;;;;;;1.00;0.43;;;15.80;99.90;;;;;;4398852;32;20121;-73
2023/07/18 03:48:59;;;;;;;0.30;0.30;;;15.80;99.90;;;;;;4402697;32;20086;-72
2023/07/18 03:51:25;;;;;;;2.10;0.43;;;15.80;99.90;;;;;;4399444;32;20074;-73
2023/07/18 03:53:50;;;;;;;0.82;0.50;;;15.80;99.90;;;;;;4401779;32;20129;-72
2023/07/18 03:56:16;;;;;;;0.20;0.20;;;15.70;99.90;;;;;;4399753;32;20446;-72
2023/07/18 03:58:42;;;;;;;0.52;0.50;;;15.70;99.90;;;;;;4399136;32;20133;-74
2023/07/18 04:01:10;;;;;;;0.25;0.25;;;15.70;99.90;;;;;;4398868;32;20090;-74
2023/07/18 04:03:37;;;;;;;0.37;0.35;;;15.60;99.90;;;;;;4402791;32;20075;-73
2023/07/18 04:06:02;;;;;;;10.15;2.30;;;15.70;99.90;;;;;;4399213;32;20078;-74
2023/07/18 04:08:28;;;;;;;0.40;0.40;;;15.70;99.90;;;;;;4397240;32;20154;-74
2023/07/18 04:10:56;;;;;;;0.40;0.28;;;15.70;99.90;;;;;;4388676;32;20404;-74
2023/07/18 04:13:21;;;;;;;0.20;0.20;;;15.60;99.90;;;;;;4385476;32;20062;-74
2023/07/18 04:15:47;;;;;;;0.30;0.30;;;15.60;99.90;;;;;;4390981;32;20438;-73
2023/07/18 04:18:12;;;;;;;1.83;0.85;;;15.60;99.90;;;;;;4397362;32;20102;-73
2023/07/18 04:20:38;;;;;;;0.70;0.70;;;15.50;99.90;;;;;;4399652;32;20085;-74
2023/07/18 04:23:03;;;;;;;0.13;0.13;;;15.60;99.90;;;;;;4389463;32;20083;-73
2023/07/18 04:25:34;;;;;;;0.20;0.20;;;15.70;99.90;;;;;;4396547;32;20070;-72
2023/07/18 04:28:01;;;;;;;0.20;0.20;;;15.60;99.90;;;;;;4391354;32;20066;-73
2023/07/18 04:30:26;;;;;;;0.20;0.20;;;15.50;99.90;;;;;;4389981;32;20117;-74
2023/07/18 04:32:51;;;;;;;0.40;0.40;;;15.60;99.90;;;;;;4396650;32;20509;-74
2023/07/18 04:35:17;;;;;;;0.45;0.45;;;15.60;99.90;;;;;;4394226;32;20078;-72
2023/07/18 04:37:43;;;;;;;0.30;0.30;;;15.60;99.90;;;;;;4388662;32;20775;-73
2023/07/18 04:40:10;;;;;;;0.35;0.30;;;15.70;99.90;;;;;;4391946;32;20132;-72
2023/07/18 04:42:37;;;;;;;0.30;0.30;;;15.80;99.90;;;;;;4390909;32;20436;-74
2023/07/18 04:45:05;;;;;;;0.93;0.50;;;15.80;99.90;;;;;;4390898;32;20548;-73
2023/07/18 04:47:31;;;;;;;0.32;0.32;;;15.80;99.90;;;;;;4393163;32;20497;-74
2023/07/18 04:49:57;;;;;;;0.30;0.30;;;15.80;99.90;;;;;;4398029;32;20086;-73
2023/07/18 04:52:23;;;;;;;0.30;0.30;;;15.90;99.90;;;;;;4399247;32;20421;-73
2023/07/18 04:54:48;;;;;;;0.75;0.75;;;15.90;99.90;;;;;;4392136;32;20078;-74
2023/07/18 04:57:14;;;;;;;0.45;0.40;;;15.70;99.90;;;;;;4388246;32;20059;-74
2023/07/18 04:59:41;;;;;;;0.30;0.30;;;15.70;99.90;;;;;;4386466;32;20071;-74
2023/07/18 05:02:06;;;;;;;0.40;0.40;;;15.70;99.90;;;;;;4396224;32;20094;-74
2023/07/18 05:04:32;;;;;;;0.60;0.60;;;15.70;99.90;;;;;;4388721;32;20178;-73
2023/07/18 05:06:58;;;;;;;0.30;0.30;;;15.60;99.90;;;;;;4393984;32;20482;-74
2023/07/18 05:09:25;;;;;;;0.20;0.20;;;15.60;99.90;;;;;;4398844;32;20561;-75
2023/07/18 05:11:50;;;;;;;0.30;0.30;;;15.60;99.90;;;;;;4401319;32;20134;-73
2023/07/18 05:14:16;;;;;;;0.57;0.30;;;15.70;99.90;;;;;;4398374;32;20069;-74
2023/07/18 05:16:41;;;;;;;0.45;0.43;;;15.60;99.90;;;;;;4399232;32;20121;-74
2023/07/18 05:19:09;;;;;;;0.50;0.35;;;15.80;99.90;;;;;;4400132;32;20066;-74
2023/07/18 05:21:35;;;;;;;0.75;0.47;;;15.90;99.90;;;;;;4398510;32;20093;-73
2023/07/18 05:24:00;;;;;;;0.30;0.30;;;16.00;99.90;;;;;;4398616;32;20080;-73
2023/07/18 05:26:26;;;;;;;0.40;0.40;;;16.00;99.90;;;;;;4398503;32;20067;-73
2023/07/18 05:28:51;;;;;;;0.60;0.50;;;16.10;99.90;;;;;;4398363;32;20073;-73
2023/07/18 05:31:17;;;;;;;0.32;0.32;;;16.10;99.90;;;;;;4398312;32;20070;-74
2023/07/18 05:33:42;;;;;;;0.30;0.30;;;16.20;99.90;;;;;;4398717;32;20087;-73
2023/07/18 05:36:08;;;;;;;0.32;0.32;;;16.30;99.90;;;;;;4398571;32;20477;-73
2023/07/18 05:38:33;;;;;;;2.92;0.55;;;16.30;99.90;;;;;;4398569;32;20066;-73
2023/07/18 05:40:59;;;;;;;0.45;0.40;;;16.40;99.90;;;;;;4399195;32;20070;-73
2023/07/18 05:43:24;;;;;;;0.30;0.30;;;16.50;99.90;;;;;;4397622;32;20069;-74
2023/07/18 05:45:50;;;;;;;0.60;0.52;;;16.60;99.90;;;;;;4398410;32;20090;-73
2023/07/18 05:48:15;;;;;;;0.60;0.60;;;16.70;99.90;;;;;;4398319;32;20565;-73
2023/07/18 05:50:41;;;;;;;0.30;0.30;;;16.70;99.90;;;;;;4398001;32;20161;-75
2023/07/18 05:53:06;;;;;;;0.40;0.40;;;16.80;99.90;;;;;;4397838;32;20062;-73
2023/07/18 05:55:32;;;;;;;0.47;0.47;;;16.80;99.90;;;;;;4397379;32;20228;-74
2023/07/18 05:57:58;;;;;;;0.40;0.40;;;16.80;99.90;;;;;;4396839;32;20125;-74
2023/07/18 06:00:23;;;;;;;0.25;0.25;;;16.80;99.90;;;;;;4398362;32;20218;-73
2023/07/18 06:02:49;;;;;;;0.28;0.28;;;16.70;99.90;;;;;;4399001;32;20061;-73
2023/07/18 06:05:15;;;;;;;0.20;0.20;;;16.80;99.90;;;;;;4398004;32;20090;-74
2023/07/18 06:07:40;;;;;;;0.20;0.20;;;16.90;99.90;;;;;;4384113;32;20518;-73
2023/07/18 06:10:06;;;;;;;3.25;0.68;;;17.00;99.90;;;;;;4401351;32;20121;-73
2023/07/18 06:12:32;;;;;;;1.62;0.65;;;17.10;99.90;;;;;;4397460;32;20399;-73
2023/07/18 06:14:58;;;;;;;0.50;0.50;;;17.20;99.90;;;;;;4397630;32;20067;-73
2023/07/18 06:17:23;;;;;;;0.30;0.30;;;17.40;99.90;;;;;;4397495;32;20065;-73
2023/07/18 06:19:49;;;;;;;0.30;0.30;;;17.40;99.90;;;;;;4398202;32;20070;-73
2023/07/18 06:22:14;;;;;;;0.40;0.40;;;17.50;99.90;;;;;;4400357;32;20525;-74
2023/07/18 06:24:41;;;;;;;12.70;0.55;;;17.50;99.90;;;;;;4398422;32;20090;-74
2023/07/18 06:27:06;;;;;;;1.17;0.28;;;17.60;99.90;;;;;;4397676;32;20730;-74
2023/07/18 06:29:32;;;;;;;0.40;0.40;;;17.60;99.90;;;;;;4397427;32;20081;-74
2023/07/18 06:31:59;;;;;;;0.22;0.22;;;17.60;99.90;;;;;;4393793;32;20053;-73
2023/07/18 06:34:24;;;;;;;0.40;0.40;;;17.60;99.90;;;;;;4396805;32;20190;-74
2023/07/18 06:36:50;;;;;;;0.43;0.43;;;17.80;99.90;;;;;;4397240;32;20115;-74
2023/07/18 06:39:16;;;;;;;0.60;0.60;;;17.90;99.90;;;;;;4394619;32;20144;-73
2023/07/18 06:41:43;;;;;;;1.17;0.88;;;18.00;99.90;;;;;;4400704;32;20065;-73
2023/07/18 06:44:11;;;;;;;0.40;0.40;;;18.10;99.90;;;;;;4397043;32;20070;-72
2023/07/18 06:46:37;;;;;;;0.40;0.40;;;18.20;99.90;;;;;;4396792;32;20078;-76
2023/07/18 06:49:02;;;;;;;0.77;0.60;;;18.20;99.90;;;;;;4397460;32;20201;-74
2023/07/18 06:51:28;;;;;;;14.32;0.50;;;18.30;99.90;;;;;;4397249;32;20061;-74
2023/07/18 06:53:54;;;;;;;3.05;0.52;;;18.40;99.90;;;;;;4395933;32;20078;-73
2023/07/18 06:56:20;;;;;;;0.45;0.43;;;18.60;99.90;;;;;;4397260;32;20078;-74
2023/07/18 06:58:45;;;;;;;3.12;0.57;;;18.80;99.90;;;;;;4411253;32;20427;-73
2023/07/18 07:01:11;;;;;;;0.70;0.52;;;18.90;99.90;;;;;;4397162;32;20065;-74
2023/07/18 07:03:36;;;;;;;0.60;0.60;;;18.90;99.90;;;;;;4397254;32;20070;-74
2023/07/18 07:06:10;;;;;;;0.93;0.55;;;18.80;99.90;;;;;;4398279;32;20470;-73
2023/07/18 07:08:35;;;;;;;9.63;1.02;;;18.80;99.90;;;;;;4398060;32;20081;-75
2023/07/18 07:11:05;;;;;;;0.32;0.32;;;18.90;99.90;;;;;;4395023;32;20125;-74
2023/07/18 07:13:31;;;;;;;0.20;0.20;;;18.90;99.90;;;;;;4397033;32;20071;-74
2023/07/18 07:15:57;;;;;;;0.30;0.30;;;18.80;99.90;;;;;;4397506;32;20508;-74
2023/07/18 07:18:23;;;;;;;0.35;0.35;;;18.90;99.90;;;;;;4396731;32;20065;-73
2023/07/18 07:20:48;;;;;;;0.50;0.50;;;18.90;99.90;;;;;;4396836;32;20086;-73
2023/07/18 07:23:14;;;;;;;0.37;0.37;;;19.10;99.90;;;;;;4396317;32;20069;-72
2023/07/18 07:25:42;;;;;;;2.30;0.50;;;19.10;99.90;;;;;;4397126;32;20090;-74
2023/07/18 07:28:09;;;;;;;0.20;0.20;;;19.00;99.90;;;;;;4396385;32;20066;-72
2023/07/18 07:30:34;;;;;;;0.35;0.35;;;19.10;99.90;;;;;;4395809;32;20121;-73
2023/07/18 07:33:00;;;;;;;0.20;0.20;;;19.20;99.90;;;;;;4403256;32;20573;-73
2023/07/18 07:35:26;;;;;;;0.30;0.30;;;19.40;99.90;;;;;;4412435;32;20096;-74
2023/07/18 07:37:51;;;;;;;3.03;0.50;;;19.60;99.90;;;;;;4398881;32;20066;-73
2023/07/18 07:40:18;;;;;;;0.22;0.22;;;19.70;99.90;;;;;;4395923;32;20074;-73
2023/07/18 07:42:45;;;;;;;0.75;0.40;;;19.50;99.90;;;;;;4396860;32;20082;-74
2023/07/18 07:45:12;;;;;;;0.65;0.45;;;19.40;99.90;;;;;;4395644;32;20066;-72
2023/07/18 07:47:37;;;;;;;0.68;0.68;;;19.40;99.90;;;;;;4390243;32;20067;-73
2023/07/18 07:50:04;;;;;;;0.40;0.40;;;19.50;99.90;;;;;;4396200;32;20418;-72
2023/07/18 07:52:30;;;;;;;3.15;0.40;;;19.60;99.90;;;;;;4396539;32;20099;-73
2023/07/18 07:54:56;;;;;;;0.65;0.37;;;19.80;99.90;;;;;;4400816;32;20058;-76
2023/07/18 07:57:22;;;;;;;0.85;0.50;;;20.00;99.90;;;;;;4396047;32;20066;-77
2023/07/18 07:59:48;;;;;;;0.20;0.20;;;19.90;99.90;;;;;;4395292;32;20070;-76
2023/07/18 08:02:14;;;;;;;0.30;0.30;;;19.80;99.90;;;;;;4394404;32;20069;-76
2023/07/18 08:04:41;;;;;;;0.60;0.60;;;20.20;99.90;;;;;;4396642;32;20754;-77
2023/07/18 08:07:07;;;;;;;0.77;0.77;;;20.40;99.90;;;;;;4406342;32;20619;-76
2023/07/18 08:09:33;;;;;;;0.47;0.47;;;20.70;99.90;;;;;;4403703;32;20152;-77
2023/07/18 08:11:58;;;;;;;0.30;0.30;;;20.60;99.90;;;;;;4398852;32;20082;-76
2023/07/18 08:14:24;;;;;;;0.40;0.40;;;20.60;99.90;;;;;;4398441;32;20070;-78
2023/07/18 08:16:49;;;;;;;0.30;0.30;;;20.80;99.90;;;;;;4398281;32;20070;-76
2023/07/18 08:19:15;;;;;;;0.40;0.40;;;21.00;99.90;;;;;;4398413;32;20090;-77
2023/07/18 08:21:41;;;;;;;0.30;0.30;;;21.20;99.90;;;;;;4397922;32;20134;-77
2023/07/18 08:24:06;;;;;;;0.30;0.30;;;20.90;99.90;;;;;;4398372;32;20066;-76
2023/07/18 08:26:32;;;;;;;0.40;0.40;;;20.90;99.90;;;;;;4398590;32;20436;-76
2023/07/18 08:28:58;;;;;;;0.50;0.50;;;20.80;99.90;;;;;;4395929;32;20117;-76
2023/07/18 08:31:23;;;;;;;0.50;0.50;;;20.80;99.90;;;;;;4391697;32;20081;-76
2023/07/18 08:33:49;;;;;;;1.65;0.73;;;20.90;99.90;;;;;;4397753;32;20070;-76
2023/07/18 08:36:15;;;;;;;0.37;0.22;;;20.50;99.90;;;;;;4398010;32;20416;-76
2023/07/18 08:38:46;;;;;;;0.45;0.45;;;20.60;99.90;;;;;;4398855;32;20062;-77
2023/07/18 08:41:12;;;;;;;;;;;20.90;99.90;;;;;;4398238;32;20124;-76
2023/07/18 08:43:38;;;;;;;0.30;0.30;;;21.20;99.90;;;;;;4398052;32;19995;-77
2023/07/18 08:46:04;;;;;;;0.20;0.20;;;21.40;99.90;;;;;;4398210;32;20537;-77
2023/07/18 08:48:31;;;;;;;0.25;0.25;;;21.40;99.90;;;;;;4397263;32;20061;-76
2023/07/18 08:50:59;;;;;;;1.12;0.80;;;21.40;99.90;;;;;;4429756;27;20081;-64
2023/07/18 08:53:25;;;;;;;1.27;0.37;;;21.50;99.90;;;;;;4414707;32;20061;-65
2023/07/18 08:55:51;;;;;;;0.20;0.20;;;21.70;99.90;;;;;;4418111;32;20065;-65
2023/07/18 08:58:18;;;;;;;1.55;0.30;;;21.90;99.90;;;;;;4405678;32;20143;-64
2023/07/18 09:00:44;;;;;;;0.40;0.40;;;21.90;99.90;;;;;;4417784;32;20514;-65
2023/07/18 09:03:09;;;;;;;1.58;0.88;;;21.90;99.90;;;;;;4424153;32;20089;-65
2023/07/18 09:05:36;;;;;;;0.20;0.20;;;22.00;99.90;;;;;;4426194;32;20485;-63
2023/07/18 09:08:03;;;;;;;0.30;0.30;;;21.90;99.90;;;;;;4417245;32;20538;-65
2023/07/18 09:10:29;;;;;;;1.70;0.50;;;22.10;99.90;;;;;;4426803;32;20062;-65
2023/07/18 09:13:00;;;;;;;0.28;0.28;;;22.10;99.90;;;;;;4425117;32;20097;-65
2023/07/18 09:15:26;;;;;;;0.30;0.30;;;21.90;99.90;;;;;;4409760;32;20144;-65
2023/07/18 09:17:54;;;;;;;0.40;0.40;;;21.80;99.90;;;;;;4413935;32;20120;-65
2023/07/18 09:20:20;;;;;;;0.57;0.47;;;21.70;99.90;;;;;;4420978;32;20061;-65
2023/07/18 09:22:46;;;;;;;4.45;0.95;;;21.70;99.90;;;;;;4414695;32;20066;-64
2023/07/18 09:25:14;;;;;;;0.28;0.28;;;21.70;99.90;;;;;;4426671;32;20066;-65
2023/07/18 09:27:40;;;;;;;1.08;0.85;;;22.00;99.90;;;;;;4420201;32;20106;-65
2023/07/18 09:30:06;;;;;;;0.43;0.43;;;22.20;99.50;;;;;;4418761;32;20635;-64
2023/07/18 09:32:32;;;;;;;0.22;0.22;;;22.10;98.80;;;;;;4415217;32;20136;-65
2023/07/18 09:34:59;;;;;;;0.20;0.20;;;22.20;99.60;;;;;;4419909;32;20505;-65
2023/07/18 09:37:25;;;;;;;0.25;0.25;;;22.40;98.80;;;;;;4423300;32;20490;-63
2023/07/18 09:39:51;;;;;;;0.20;0.20;;;22.40;98.80;;;;;;4418626;32;20061;-65
2023/07/18 09:42:17;;;;;;;1.17;0.75;;;22.50;98.40;;;;;;4416370;32;20528;-64
2023/07/18 09:44:48;;;;;;;0.20;0.20;;;22.60;97.90;;;;;;4420086;32;20078;-65
2023/07/18 09:47:14;;;;;;;0.30;0.30;;;22.70;97.70;;;;;;4399409;32;20078;-64
2023/07/18 09:49:42;;;;;;;0.45;0.45;;;22.50;96.90;;;;;;4400721;32;20077;-65
2023/07/18 09:52:09;;;;;;;0.40;0.40;;;22.30;97.00;;;;;;4398746;32;20604;-65
2023/07/18 09:54:35;;;;;;;0.40;0.40;;;22.50;97.20;;;;;;4411033;32;20062;-64
2023/07/18 09:57:04;;;;;;;0.22;0.22;;;22.80;96.30;;;;;;4412418;32;20089;-64
2023/07/18 09:59:30;;;;;;;0.20;0.20;;;22.80;94.80;;;;;;4412911;32;20483;-65
2023/07/18 10:01:56;;;;;;;0.20;0.20;;;22.70;94.80;;;;;;4410428;32;20077;-65
2023/07/18 10:04:22;;;;;;;0.35;0.35;;;22.90;94.60;;;;;;4411308;32;20069;-65
2023/07/18 10:06:49;;;;;;;1.77;0.25;;;23.30;94.70;;;;;;4406725;32;20066;-65
2023/07/18 10:09:16;;;;;;;0.28;0.28;;;23.50;94.60;;;;;;4411421;32;20065;-65
2023/07/18 10:12:03;;;;;;;0.43;0.43;;;23.60;94.20;;;;;;4410242;32;20526;-65
2023/07/18 10:14:46;;;;;;;0.17;0.17;;;23.90;93.90;;;;;;4400679;32;20069;-65
2023/07/18 10:17:24;;;;;;;0.20;0.20;;;24.20;94.10;;;;;;4398281;32;20522;-65
2023/07/18 10:19:50;;;;;;;0.30;0.30;;;24.00;93.40;;;;;;4413434;32;20146;-66
2023/07/18 10:22:26;;;;;;;0.22;0.22;;;23.80;93.30;;;;;;4413418;32;20606;-66
2023/07/18 10:24:51;;;;;;;0.30;0.30;;;23.60;93.20;;;;;;4410444;32;20069;-66
2023/07/18 10:27:17;;;;;;;0.20;0.20;;;23.30;93.80;;;;;;4410383;32;20481;-65
2023/07/18 10:30:03;;;;;;;0.40;0.40;;;23.10;93.50;;;;;;4412670;32;20120;-63
2023/07/18 10:32:31;;;;;;;0.32;0.32;;;23.20;93.40;;;;;;4407089;32;20074;-63
2023/07/18 10:34:58;;;;;;;0.40;0.40;;;23.60;93.10;;;;;;4407698;32;20077;-64
2023/07/18 10:37:26;;;;;;;6.87;0.32;;;23.90;92.60;;;;;;4401938;32;20073;-63
2023/07/18 10:39:53;;;;;;;0.20;0.20;;;24.20;92.60;;;;;;4411863;32;20094;-64
2023/07/18 10:42:24;;;;;;;0.20;0.20;;;24.20;91.20;;;;;;4412986;32;20125;-64
2023/07/18 10:44:55;;;;;;;0.20;0.20;;;24.20;91.30;;;;;;4413067;32;20081;-64
2023/07/18 10:47:21;;;;;;;;;;;24.40;91.50;;;;;;4411610;32;20073;-64
2023/07/18 10:49:47;;;;;;;0.20;0.20;;;24.90;91.60;;;;;;4406832;32;20308;-64
2023/07/18 10:52:13;;;;;;;0.22;0.22;;;25.30;91.20;;;;;;4395673;32;20058;-63
2023/07/18 10:54:44;;;;;;;3.10;0.90;;;25.70;90.90;;;;;;4397411;32;20141;-62
2023/07/18 10:57:09;;;;;;;0.82;0.30;;;25.20;88.20;;;;;;4410805;32;20553;-64
2023/07/18 10:59:36;;;;;;;0.37;0.37;;;24.60;89.40;;;;;;4396246;32;20085;-63
2023/07/18 11:02:03;;;;;;;0.30;0.30;;;24.40;89.60;;;;;;4411924;32;20061;-64
2023/07/18 11:04:29;;;;;;;0.20;0.20;;;24.90;88.20;;;;;;4397973;32;20534;-64
2023/07/18 11:06:55;;;;;;;0.30;0.30;;;25.20;86.90;;;;;;4411140;32;20065;-64
2023/07/18 11:09:22;;;;;;;1.45;0.65;;;25.90;86.20;;;;;;4412326;32;20081;-62
2023/07/18 11:11:48;;;;;;;0.10;0.10;;;25.80;85.40;;;;;;4410913;32;20402;-63
2023/07/18 11:14:13;;;;;;;0.17;0.17;;;26.10;85.30;;;;;;4392409;32;20089;-64
2023/07/18 11:16:39;;;;;;;0.20;0.20;;;26.60;85.60;;;;;;4409116;32;20065;-64
2023/07/18 11:19:05;;;;;;;0.20;0.20;;;27.00;83.50;;;;;;4412348;32;20313;-64
2023/07/18 11:21:32;;;;;;;0.40;0.40;;;27.30;82.30;;;;;;4411742;32;20078;-64
2023/07/18 11:23:59;;;;;;;0.20;0.20;;;27.40;79.80;;;;;;4412571;32;20069;-64
2023/07/18 11:26:24;;;;;;;0.10;0.10;;;27.50;80.70;;;;;;4407574;32;20074;-64
2023/07/18 11:28:52;;;;;;;0.10;0.10;;;27.40;79.90;;;;;;4404326;32;20113;-63
2023/07/18 11:31:21;;;;;;;3.45;0.55;;;27.20;81.70;;;;;;4405905;32;20070;-63
2023/07/18 11:33:53;;;;;;;0.20;0.20;;;27.60;79.30;;;;;;4409234;32;20094;-63
2023/07/18 11:36:19;;;;;;;0.20;0.20;;;27.70;79.30;;;;;;4399071;32;20098;-63
2023/07/18 11:38:49;;;;;;;0.10;0.10;;;27.70;79.40;;;;;;4410277;32;20069;-63
2023/07/18 11:41:32;;;;;;;0.32;0.32;;;28.00;77.10;;;;;;4386493;32;20411;-64
2023/07/18 11:43:58;;;;;;;0.00;0.00;;;28.20;77.50;;;;;;4401603;32;20495;-64
2023/07/18 11:46:42;;;;;;;0.00;0.00;;;28.50;78.30;;;;;;4411523;32;86480;-64
2023/07/18 11:49:09;;;;;;;0.57;0.17;;;28.60;76.80;;;;;;4413436;32;20066;-64
2023/07/18 11:51:35;;;;;;;0.55;0.35;;;28.70;72.70;;;;;;4405022;32;20116;-64
2023/07/18 11:54:02;;;;;;;0.00;0.00;;;28.50;75.10;;;;;;4385271;32;20046;-64
2023/07/18 11:56:30;;;;;;;0.10;0.10;;;28.60;72.00;;;;;;4391824;32;20058;-64
2023/07/18 11:58:55;;;;;;;0.10;0.10;;;28.70;73.70;;;;;;4407168;32;20062;-64
2023/07/18 12:01:21;;;;;;;0.10;0.10;;;28.50;73.70;;;;;;4404155;32;20093;-64
2023/07/18 12:03:46;;;;;;;0.05;0.05;;;27.90;74.80;;;;;;4400155;32;20194;-64
2023/07/18 12:06:12;;;;;;;1.00;0.10;;;28.00;74.90;;;;;;4407837;32;20372;-64
2023/07/18 12:08:37;;;;;;;0.10;0.10;;;28.60;75.20;;;;;;4402682;32;20054;-64
2023/07/18 12:11:04;;;;;;;0.10;0.10;;;29.00;71.70;;;;;;4401035;32;20054;-64
2023/07/18 12:13:30;;;;;;;0.10;0.10;;;29.30;70.00;;;;;;4403447;32;20562;-64
2023/07/18 12:15:59;;;;;;;0.00;0.00;;;29.70;69.40;;;;;;4410216;32;20089;-64
2023/07/18 12:18:24;;;;;;;0.10;0.10;;;30.00;67.00;;;;;;4410556;32;20058;-65
2023/07/18 12:20:50;;;;;;;0.00;0.00;;;30.40;67.50;;;;;;4408078;32;20058;-64
2023/07/18 12:23:15;;;;;;;0.00;0.00;;;30.70;67.00;;;;;;4407268;32;20413;-64
2023/07/18 12:25:41;;;;;;;0.17;0.17;;;29.90;67.10;;;;;;4403877;32;20058;-64
2023/07/18 12:28:07;;;;;;;0.00;0.00;;;29.30;67.70;;;;;;4394164;32;20070;-64
2023/07/18 12:30:34;;;;;;;0.00;0.00;;;28.90;69.20;;;;;;4402763;32;20078;-63
2023/07/18 12:32:59;;;;;;;0.00;0.00;;;28.80;68.00;;;;;;4411629;32;20387;-64
2023/07/18 12:35:26;;;;;;;0.43;0.20;;;28.80;69.60;;;;;;4404626;32;20090;-63
2023/07/18 12:37:54;;;;;;;0.08;0.08;;;29.20;68.30;;;;;;4408134;32;20494;-64
2023/07/18 12:40:20;;;;;;;0.43;0.25;;;29.60;67.20;;;;;;4395257;32;20423;-63
2023/07/18 12:42:45;;;;;;;0.00;0.00;;;29.80;66.90;;;;;;4403000;32;20086;-64
2023/07/18 12:45:11;;;;;;;0.20;0.20;;;29.70;68.00;;;;;;4408918;32;20586;-63